Time;durP1;ratioP1;P1;durP2;ratioP2;P2;SDS_P1;SDS_P2;PMS_P1;PMS_P2;Temp;Humidity;BMP_temperature;BMP_pressure;BME280_temperature;BME280_humidity;BME280_pressure;Samples;Min_cycle;Max_cycle;Signal;HPM_P1;HPM_P2
2023/04/21 00:02:00;;;;;;;11.80;11.20;;;;;;;;;;5049383;28;20052;-65
2023/04/21 00:04:27;;;;;;;12.05;11.45;;;;;;;;;;5052215;28;20078;-63
2023/04/21 00:06:53;;;;;;;12.27;11.68;;;;;;;;;;5044587;28;20426;-63
2023/04/21 00:09:19;;;;;;;11.90;11.30;;;;;;;;;;5039436;28;20600;-63
2023/04/21 00:11:44;;;;;;;12.52;11.88;;;;;;;;;;5060431;28;20025;-63
2023/04/21 00:14:10;;;;;;;12.40;11.80;;;;;;;;;;5052597;28;20500;-63
2023/04/21 00:16:35;;;;;;;12.05;11.45;;;;;;;;;;5053196;28;20095;-63
2023/04/21 00:19:05;;;;;;;12.52;11.90;;;;;;;;;;5045072;28;20171;-64
2023/04/21 00:21:31;;;;;;;11.88;11.27;;;;;;;;;;5052293;28;20025;-63
2023/04/21 00:23:57;;;;;;;12.10;11.50;;;;;;;;;;5052607;28;20028;-63
2023/04/21 00:26:22;;;;;;;11.88;11.27;;;;;;;;;;5052419;28;20017;-64
2023/04/21 00:28:47;;;;;;;12.43;11.82;;;;;;;;;;5052319;28;20484;-64
2023/04/21 00:31:13;;;;;;;12.00;11.40;;;;;;;;;;5052135;28;20391;-64
2023/04/21 00:33:38;;;;;;;12.10;11.50;;;;;;;;;;5045067;28;20487;-64
2023/04/21 00:36:03;;;;;;;12.10;11.50;;;;;;;;;;5049449;28;20472;-64
2023/04/21 00:38:29;;;;;;;12.00;11.40;;;;;;;;;;5048390;28;20091;-63
2023/04/21 00:40:54;;;;;;;12.00;11.40;;;;;;;;;;5052379;28;20487;-63
2023/04/21 00:43:19;;;;;;;11.68;11.18;;;;;;;;;;5052124;28;20405;-64
2023/04/21 00:45:45;;;;;;;12.02;11.43;;;;;;;;;;5051838;28;20025;-64
2023/04/21 00:48:11;;;;;;;12.18;11.57;;;;;;;;;;5041018;28;20014;-63
2023/04/21 00:50:36;;;;;;;12.27;11.68;;;;;;;;;;5048880;28;20051;-64
2023/04/21 00:53:02;;;;;;;12.30;11.70;;;;;;;;;;5050412;28;20447;-64
2023/04/21 00:55:28;;;;;;;12.57;11.95;;;;;;;;;;5051478;28;20021;-64
2023/04/21 00:57:54;;;;;;;12.18;11.57;;;;;;;;;;5052458;28;20154;-64
2023/04/21 01:00:19;;;;;;;12.40;11.80;;;;;;;;;;5054896;28;20049;-63
2023/04/21 01:02:45;;;;;;;11.80;11.23;;;;;;;;;;5046879;28;20075;-63
2023/04/21 01:05:10;;;;;;;12.10;11.50;;;;;;;;;;5041872;28;20035;-63
2023/04/21 01:07:36;;;;;;;12.05;11.45;;;;;;;;;;5041926;28;20047;-63
2023/04/21 01:10:02;;;;;;;12.40;11.80;;;;;;;;;;5038242;28;20510;-63
2023/04/21 01:12:28;;;;;;;12.55;11.95;;;;;;;;;;5044460;28;20035;-63
2023/04/21 01:14:54;;;;;;;12.35;11.75;;;;;;;;;;5052041;28;20098;-64
2023/04/21 01:17:19;;;;;;;12.07;11.48;;;;;;;;;;5051410;28;20025;-64
2023/04/21 01:19:45;;;;;;;12.48;11.88;;;;;;;;;;5051698;28;20017;-64
2023/04/21 01:22:11;;;;;;;12.32;11.73;;;;;;;;;;5051527;28;20013;-65
2023/04/21 01:24:37;;;;;;;11.90;11.30;;;;;;;;;;5051190;28;20021;-65
2023/04/21 01:27:03;;;;;;;12.18;11.57;;;;;;;;;;5048423;28;20419;-64
2023/04/21 01:29:32;;;;;;;12.05;11.45;;;;;;;;;;5046890;28;20070;-64
2023/04/21 01:31:57;;;;;;;11.82;11.23;;;;;;;;;;5039643;28;20029;-64
2023/04/21 01:34:22;;;;;;;11.88;11.30;;;;;;;;;;5051557;28;20025;-64
2023/04/21 01:36:48;;;;;;;12.10;11.50;;;;;;;;;;5050179;28;20381;-64
2023/04/21 01:39:13;;;;;;;12.50;11.90;;;;;;;;;;5051391;28;20143;-64
2023/04/21 01:41:38;;;;;;;12.50;11.90;;;;;;;;;;5051611;28;20477;-63
2023/04/21 01:44:04;;;;;;;12.30;11.70;;;;;;;;;;5045707;28;20005;-64
2023/04/21 01:46:29;;;;;;;12.02;11.43;;;;;;;;;;5046419;28;20507;-64
2023/04/21 01:48:55;;;;;;;12.00;11.40;;;;;;;;;;5055823;28;20623;-64
2023/04/21 01:51:20;;;;;;;12.70;12.00;;;;;;;;;;5053803;28;20056;-64
2023/04/21 01:53:45;;;;;;;11.88;11.27;;;;;;;;;;5052701;28;20027;-64
2023/04/21 01:56:14;;;;;;;12.07;11.48;;;;;;;;;;5054482;28;20032;-64
2023/04/21 01:58:39;;;;;;;12.05;11.45;;;;;;;;;;5043149;28;20068;-64
2023/04/21 02:01:04;;;;;;;11.90;11.30;;;;;;;;;;5046057;28;20404;-64
2023/04/21 02:03:30;;;;;;;11.82;11.23;;;;;;;;;;5054937;28;20017;-64
2023/04/21 02:05:55;;;;;;;11.85;11.25;;;;;;;;;;5055253;28;20032;-64
2023/04/21 02:08:20;;;;;;;12.05;11.45;;;;;;;;;;5054713;28;20100;-64
2023/04/21 02:10:46;;;;;;;11.82;11.23;;;;;;;;;;5055150;28;20025;-64
2023/04/21 02:13:11;;;;;;;12.65;11.95;;;;;;;;;;5055012;28;20025;-65
2023/04/21 02:15:36;;;;;;;12.20;11.60;;;;;;;;;;5052903;28;20029;-63
2023/04/21 02:18:02;;;;;;;12.82;12.13;;;;;;;;;;5051692;28;20025;-65
2023/04/21 02:20:27;;;;;;;12.52;11.93;;;;;;;;;;5058151;28;20031;-64
2023/04/21 02:22:53;;;;;;;12.30;11.70;;;;;;;;;;5058225;28;20017;-64
2023/04/21 02:25:18;;;;;;;12.07;11.48;;;;;;;;;;5054753;28;20464;-64
2023/04/21 02:27:44;;;;;;;11.98;11.38;;;;;;;;;;5047034;28;20492;-63
2023/04/21 02:30:10;;;;;;;12.15;11.55;;;;;;;;;;5052674;28;20017;-63
2023/04/21 02:32:35;;;;;;;12.00;11.40;;;;;;;;;;5054543;28;20029;-64
2023/04/21 02:35:00;;;;;;;11.95;11.35;;;;;;;;;;5043669;28;20120;-64
2023/04/21 02:37:26;;;;;;;12.10;11.50;;;;;;;;;;5052256;28;20060;-64
2023/04/21 02:39:51;;;;;;;12.27;11.68;;;;;;;;;;5052375;28;20044;-63
2023/04/21 02:42:16;;;;;;;12.88;12.18;;;;;;;;;;5054593;28;20017;-64
2023/04/21 02:44:42;;;;;;;12.00;11.40;;;;;;;;;;5054334;28;20045;-63
2023/04/21 02:47:08;;;;;;;12.50;11.90;;;;;;;;;;5053866;28;20017;-64
2023/04/21 02:49:33;;;;;;;11.98;11.38;;;;;;;;;;5052842;28;20047;-64
2023/04/21 02:51:59;;;;;;;12.23;11.63;;;;;;;;;;5045869;28;20049;-64
2023/04/21 02:54:24;;;;;;;11.68;11.18;;;;;;;;;;5053864;28;20025;-64
2023/04/21 02:56:49;;;;;;;12.20;11.60;;;;;;;;;;5048079;28;20014;-64
2023/04/21 02:59:15;;;;;;;12.25;11.65;;;;;;;;;;5049334;28;20013;-65
2023/04/21 03:01:40;;;;;;;12.23;11.63;;;;;;;;;;5053675;28;20088;-64
2023/04/21 03:04:06;;;;;;;12.85;12.15;;;;;;;;;;5053901;28;20488;-64
2023/04/21 03:06:31;;;;;;;13.48;12.68;;;;;;;;;;5046002;28;20021;-64
2023/04/21 03:08:57;;;;;;;12.45;11.85;;;;;;;;;;5049528;28;20476;-64
2023/04/21 03:11:23;;;;;;;12.15;11.55;;;;;;;;;;5054185;28;20028;-64
2023/04/21 03:13:48;;;;;;;12.70;12.00;;;;;;;;;;5054340;28;20431;-63
2023/04/21 03:16:13;;;;;;;12.55;11.85;;;;;;;;;;5052609;28;20531;-63
2023/04/21 03:18:38;;;;;;;12.15;11.55;;;;;;;;;;5053643;28;20047;-64
2023/04/21 03:21:04;;;;;;;12.30;11.70;;;;;;;;;;5053720;28;20020;-64
2023/04/21 03:23:29;;;;;;;12.30;11.70;;;;;;;;;;5052035;28;20120;-65
2023/04/21 03:25:54;;;;;;;12.35;11.75;;;;;;;;;;5048593;28;20028;-64
2023/04/21 03:28:20;;;;;;;12.23;11.60;;;;;;;;;;5048810;28;20480;-65
2023/04/21 03:30:45;;;;;;;12.07;11.48;;;;;;;;;;5047510;28;20021;-65
2023/04/21 03:33:10;;;;;;;12.18;11.57;;;;;;;;;;5052282;28;20564;-64
2023/04/21 03:35:36;;;;;;;12.38;11.77;;;;;;;;;;5049503;28;20108;-63
2023/04/21 03:38:01;;;;;;;12.55;11.85;;;;;;;;;;5044977;28;20366;-63
2023/04/21 03:40:26;;;;;;;12.30;11.70;;;;;;;;;;5048692;28;20033;-64
2023/04/21 03:42:52;;;;;;;12.43;11.80;;;;;;;;;;5052480;28;20029;-64
2023/04/21 03:45:21;;;;;;;12.70;12.00;;;;;;;;;;5053367;28;20416;-65
2023/04/21 03:47:46;;;;;;;12.00;11.40;;;;;;;;;;5053003;28;20032;-64
2023/04/21 03:50:12;;;;;;;12.82;12.13;;;;;;;;;;5050278;28;20021;-64
2023/04/21 03:52:37;;;;;;;12.32;11.73;;;;;;;;;;5050898;28;20027;-64
2023/04/21 03:55:03;;;;;;;13.07;12.38;;;;;;;;;;5047085;28;20024;-65
2023/04/21 03:57:29;;;;;;;12.88;12.18;;;;;;;;;;5047663;28;20079;-64
2023/04/21 03:59:54;;;;;;;12.80;12.10;;;;;;;;;;5046753;28;20025;-64
2023/04/21 04:02:19;;;;;;;12.43;11.82;;;;;;;;;;5052618;28;20723;-64
2023/04/21 04:04:45;;;;;;;12.88;12.18;;;;;;;;;;5047799;28;20032;-64
2023/04/21 04:07:10;;;;;;;13.05;12.35;;;;;;;;;;5047007;28;20018;-65
2023/04/21 04:09:35;;;;;;;12.55;11.88;;;;;;;;;;5041634;28;20098;-64
2023/04/21 04:12:02;;;;;;;12.30;11.70;;;;;;;;;;5040479;28;20100;-64
2023/04/21 04:14:28;;;;;;;11.98;11.38;;;;;;;;;;5052674;28;20029;-64
2023/04/21 04:16:53;;;;;;;11.88;11.27;;;;;;;;;;5042120;28;20029;-64
2023/04/21 04:19:18;;;;;;;12.07;11.48;;;;;;;;;;5042552;28;20036;-64
2023/04/21 04:21:44;;;;;;;12.10;11.50;;;;;;;;;;5038620;28;20025;-65
2023/04/21 04:24:10;;;;;;;13.60;12.80;;;;;;;;;;5043006;28;20024;-64
2023/04/21 04:26:37;;;;;;;12.70;12.00;;;;;;;;;;5047544;28;20009;-64
2023/04/21 04:29:04;;;;;;;13.15;12.45;;;;;;;;;;5038081;28;20438;-63
2023/04/21 04:31:29;;;;;;;12.80;12.10;;;;;;;;;;5039926;28;20790;-63
2023/04/21 04:33:55;;;;;;;12.82;12.13;;;;;;;;;;5042088;28;20033;-64
2023/04/21 04:36:20;;;;;;;13.10;12.40;;;;;;;;;;5051921;28;20021;-63
2023/04/21 04:38:45;;;;;;;13.43;12.63;;;;;;;;;;5052038;28;20029;-64
2023/04/21 04:41:11;;;;;;;13.18;12.45;;;;;;;;;;5050344;28;20075;-63
2023/04/21 04:43:37;;;;;;;12.40;11.80;;;;;;;;;;5049981;28;20389;-65
2023/04/21 04:46:03;;;;;;;12.95;12.25;;;;;;;;;;5049477;28;20040;-64
2023/04/21 04:48:28;;;;;;;12.45;11.80;;;;;;;;;;5042688;28;20017;-64
2023/04/21 04:50:54;;;;;;;12.70;12.00;;;;;;;;;;5046636;28;20029;-64
2023/04/21 04:53:19;;;;;;;12.95;12.25;;;;;;;;;;5051861;28;20016;-63
2023/04/21 04:55:46;;;;;;;12.00;11.40;;;;;;;;;;5047308;28;20081;-63
2023/04/21 04:58:11;;;;;;;13.02;12.32;;;;;;;;;;5051367;28;20028;-63
2023/04/21 05:00:36;;;;;;;12.50;11.80;;;;;;;;;;5050809;28;20044;-64
2023/04/21 05:03:02;;;;;;;12.82;12.13;;;;;;;;;;5038282;28;20022;-62
2023/04/21 05:05:27;;;;;;;12.93;12.23;;;;;;;;;;5050841;28;20021;-64
2023/04/21 05:07:53;;;;;;;12.25;11.65;;;;;;;;;;5048692;28;20039;-65
2023/04/21 05:10:18;;;;;;;12.50;11.90;;;;;;;;;;5052275;28;20074;-63
2023/04/21 05:12:43;;;;;;;12.90;12.20;;;;;;;;;;5049626;28;20025;-65
2023/04/21 05:15:09;;;;;;;12.80;12.10;;;;;;;;;;5035814;28;20075;-64
2023/04/21 05:17:35;;;;;;;13.13;12.40;;;;;;;;;;5045088;28;20063;-64
2023/04/21 05:20:00;;;;;;;12.55;11.90;;;;;;;;;;5051569;28;20025;-64
2023/04/21 05:22:25;;;;;;;11.95;11.35;;;;;;;;;;5050754;28;20431;-64
2023/04/21 05:24:51;;;;;;;12.20;11.60;;;;;;;;;;5041310;28;20017;-65
2023/04/21 05:27:16;;;;;;;13.73;12.93;;;;;;;;;;5051092;28;20034;-65
2023/04/21 05:29:42;;;;;;;12.75;12.05;;;;;;;;;;5055725;28;20029;-63
2023/04/21 05:32:08;;;;;;;12.98;12.27;;;;;;;;;;5051135;28;20063;-65
2023/04/21 05:34:33;;;;;;;11.98;11.38;;;;;;;;;;5051576;28;20023;-64
2023/04/21 05:36:58;;;;;;;12.90;12.20;;;;;;;;;;5050235;28;20421;-64
2023/04/21 05:39:24;;;;;;;13.75;12.95;;;;;;;;;;5051113;28;20010;-64
2023/04/21 05:41:50;;;;;;;12.10;11.48;;;;;;;;;;5049287;28;20075;-65
2023/04/21 05:44:16;;;;;;;13.18;12.48;;;;;;;;;;5047590;28;20441;-65
2023/04/21 05:46:41;;;;;;;12.18;11.57;;;;;;;;;;5045070;28;20025;-64
2023/04/21 05:49:07;;;;;;;12.90;12.20;;;;;;;;;;5051037;28;20025;-64
2023/04/21 05:51:32;;;;;;;12.05;11.45;;;;;;;;;;5042551;28;20539;-64
2023/04/21 05:53:57;;;;;;;12.23;11.63;;;;;;;;;;5050115;28;20396;-64
2023/04/21 05:56:23;;;;;;;13.10;12.40;;;;;;;;;;5045726;28;20021;-64
2023/04/21 05:58:48;;;;;;;13.52;12.75;;;;;;;;;;5042965;28;20026;-64
2023/04/21 06:01:14;;;;;;;13.68;12.90;;;;;;;;;;5039670;28;20077;-65
2023/04/21 06:03:39;;;;;;;12.98;12.27;;;;;;;;;;5042939;28;20032;-65
2023/04/21 06:06:05;;;;;;;14.32;13.43;;;;;;;;;;5045413;28;20084;-65
2023/04/21 06:08:31;;;;;;;13.15;12.45;;;;;;;;;;5048490;28;20021;-65
2023/04/21 06:10:56;;;;;;;13.55;12.75;;;;;;;;;;5053140;28;20032;-65
2023/04/21 06:13:22;;;;;;;12.55;11.90;;;;;;;;;;5047693;28;20036;-66
2023/04/21 06:15:47;;;;;;;13.40;12.65;;;;;;;;;;5044238;28;20076;-65
2023/04/21 06:18:12;;;;;;;13.15;12.45;;;;;;;;;;5042287;28;20641;-62
2023/04/21 06:20:39;;;;;;;12.32;11.73;;;;;;;;;;5045028;28;20032;-61
2023/04/21 06:23:05;;;;;;;12.82;12.13;;;;;;;;;;5050782;28;20104;-62
2023/04/21 06:25:30;;;;;;;12.40;11.80;;;;;;;;;;5045147;28;20108;-62
2023/04/21 06:27:55;;;;;;;14.95;14.05;;;;;;;;;;5046160;28;20017;-66
2023/04/21 06:30:21;;;;;;;15.27;14.27;;;;;;;;;;5035078;28;20164;-65
2023/04/21 06:32:47;;;;;;;14.63;13.73;;;;;;;;;;5043616;28;20025;-65
2023/04/21 06:35:13;;;;;;;14.82;13.93;;;;;;;;;;5051958;28;20032;-63
2023/04/21 06:37:39;;;;;;;14.82;13.93;;;;;;;;;;5046069;28;20035;-66
2023/04/21 06:40:04;;;;;;;14.77;13.88;;;;;;;;;;5044524;28;20025;-62
2023/04/21 06:42:30;;;;;;;14.68;13.77;;;;;;;;;;5042882;28;20025;-62
2023/04/21 06:44:57;;;;;;;14.10;13.30;;;;;;;;;;5047325;28;20025;-63
2023/04/21 06:47:22;;;;;;;14.88;13.98;;;;;;;;;;5036238;28;20021;-63
2023/04/21 06:49:48;;;;;;;13.98;13.18;;;;;;;;;;5041012;28;20380;-65
2023/04/21 06:52:13;;;;;;;14.15;13.35;;;;;;;;;;5044698;28;20046;-65
2023/04/21 06:54:38;;;;;;;13.50;12.75;;;;;;;;;;5038685;28;20037;-65
2023/04/21 06:57:04;;;;;;;13.48;12.77;;;;;;;;;;5047908;28;20032;-66
2023/04/21 06:59:30;;;;;;;12.77;12.10;;;;;;;;;;5042542;28;20020;-67
2023/04/21 07:01:55;;;;;;;13.10;12.40;;;;;;;;;;5052682;28;20055;-64
2023/04/21 07:04:20;;;;;;;13.25;12.55;;;;;;;;;;5045817;28;20079;-66
2023/04/21 07:06:46;;;;;;;13.77;13.07;;;;;;;;;;5038365;28;20455;-65
2023/04/21 07:09:11;;;;;;;13.43;12.73;;;;;;;;;;5050332;28;20036;-65
2023/04/21 07:11:37;;;;;;;13.60;12.90;;;;;;;;;;5066509;28;20048;-65
2023/04/21 07:14:02;;;;;;;14.35;13.65;;;;;;;;;;5053274;28;20052;-64
2023/04/21 07:16:29;;;;;;;12.93;12.32;;;;;;;;;;5050849;28;20476;-67
2023/04/21 07:18:54;;;;;;;14.10;13.40;;;;;;;;;;5041834;28;20382;-67
2023/04/21 07:21:19;;;;;;;14.30;13.60;;;;;;;;;;5050947;28;20040;-65
2023/04/21 07:23:45;;;;;;;14.15;13.45;;;;;;;;;;5039785;28;20167;-65
2023/04/21 07:26:10;;;;;;;13.80;13.10;;;;;;;;;;5040830;28;20636;-64
2023/04/21 07:28:36;;;;;;;14.57;13.88;;;;;;;;;;5046874;28;20036;-63
2023/04/21 07:31:01;;;;;;;13.43;12.77;;;;;;;;;;5049418;28;20020;-65
2023/04/21 07:33:27;;;;;;;13.40;12.77;;;;;;;;;;5041346;28;20400;-65
2023/04/21 07:35:52;;;;;;;14.30;13.60;;;;;;;;;;5043670;28;20484;-66
2023/04/21 07:38:17;;;;;;;14.57;13.88;;;;;;;;;;5040999;28;20033;-64
2023/04/21 07:40:43;;;;;;;14.60;13.90;;;;;;;;;;5041795;28;20028;-65
2023/04/21 07:43:08;;;;;;;14.02;13.32;;;;;;;;;;5046129;28;20481;-64
2023/04/21 07:45:34;;;;;;;15.15;14.35;;;;;;;;;;5041103;28;20017;-65
2023/04/21 07:48:00;;;;;;;13.55;12.95;;;;;;;;;;5042867;28;20492;-65
2023/04/21 07:50:25;;;;;;;13.70;13.00;;;;;;;;;;5044300;28;20870;-65
2023/04/21 07:52:51;;;;;;;14.25;13.55;;;;;;;;;;5039295;28;20024;-65
2023/04/21 07:55:16;;;;;;;13.38;12.77;;;;;;;;;;5040953;28;20060;-65
2023/04/21 07:57:42;;;;;;;14.30;13.60;;;;;;;;;;5040268;28;20025;-65
2023/04/21 08:00:09;;;;;;;14.15;13.45;;;;;;;;;;5042071;28;20045;-66
2023/04/21 08:02:34;;;;;;;14.00;13.30;;;;;;;;;;5039763;28;20027;-64
2023/04/21 08:04:59;;;;;;;14.50;13.80;;;;;;;;;;5040891;28;20010;-67
2023/04/21 08:07:25;;;;;;;14.57;13.88;;;;;;;;;;5042380;28;20262;-66
2023/04/21 08:09:50;;;;;;;14.52;13.80;;;;;;;;;;5047564;28;20030;-65
2023/04/21 08:12:15;;;;;;;14.45;13.75;;;;;;;;;;5045265;28;20048;-65
2023/04/21 08:14:40;;;;;;;14.52;13.82;;;;;;;;;;5041327;28;20048;-65
2023/04/21 08:17:06;;;;;;;14.52;13.82;;;;;;;;;;5042800;28;20028;-65
2023/04/21 08:19:31;;;;;;;14.32;13.63;;;;;;;;;;5048162;28;20024;-66
2023/04/21 08:21:57;;;;;;;14.40;13.70;;;;;;;;;;5042409;28;22704;-66
2023/04/21 08:24:24;;;;;;;13.85;13.15;;;;;;;;;;5040604;28;20493;-67
2023/04/21 08:26:50;;;;;;;13.18;12.57;;;;;;;;;;5046649;28;20043;-66
2023/04/21 08:29:15;;;;;;;15.05;14.25;;;;;;;;;;5042650;28;20021;-66
2023/04/21 08:31:41;;;;;;;14.00;13.30;;;;;;;;;;5049069;28;20059;-66
2023/04/21 08:34:06;;;;;;;15.98;15.07;;;;;;;;;;5043034;28;20107;-66
2023/04/21 08:36:32;;;;;;;13.52;12.85;;;;;;;;;;5050344;28;20033;-66
2023/04/21 08:38:57;;;;;;;16.23;15.32;;;;;;;;;;5044838;28;20043;-66
2023/04/21 08:41:23;;;;;;;13.68;12.98;;;;;;;;;;5053998;28;20067;-66
2023/04/21 08:43:48;;;;;;;14.20;13.50;;;;;;;;;;5049508;28;20032;-65
2023/04/21 08:46:14;;;;;;;14.52;13.73;;;;;;;;;;5040258;28;20091;-66
2023/04/21 08:48:40;;;;;;;15.10;14.27;;;;;;;;;;5034766;28;20036;-66
2023/04/21 08:51:09;;;;;;;15.35;14.45;;;;;;;;;;5036219;28;20025;-64
2023/04/21 08:53:40;;;;;;;14.80;14.00;;;;;;;;;;5048703;28;20086;-66
2023/04/21 08:56:05;;;;;;;14.35;13.55;;;;;;;;;;5045625;28;20030;-65
2023/04/21 08:58:31;;;;;;;13.90;13.20;;;;;;;;;;5048897;28;20032;-66
2023/04/21 09:00:57;;;;;;;14.05;13.25;;;;;;;;;;5037780;28;20120;-66
2023/04/21 09:03:23;;;;;;;13.82;13.13;;;;;;;;;;5040028;28;20017;-65
2023/04/21 09:05:59;;;;;;;14.48;13.68;;;;;;;;;;5045814;28;20070;-65
2023/04/21 09:08:26;;;;;;;14.82;14.00;;;;;;;;;;5040882;28;20024;-68
2023/04/21 09:10:52;;;;;;;15.38;14.48;;;;;;;;;;5044708;28;20116;-65
2023/04/21 09:13:18;;;;;;;15.05;14.23;;;;;;;;;;5042841;28;20141;-66
2023/04/21 09:15:47;;;;;;;15.25;14.35;;;;;;;;;;5054647;28;20133;-64
2023/04/21 09:18:13;;;;;;;14.75;13.95;;;;;;;;;;5052131;28;20012;-66
2023/04/21 09:20:39;;;;;;;13.60;12.90;;;;;;;;;;5040411;28;20103;-66
2023/04/21 09:23:05;;;;;;;14.23;13.43;;;;;;;;;;5041105;28;20389;-64
2023/04/21 09:25:31;;;;;;;14.68;13.88;;;;;;;;;;5056187;28;20468;-64
2023/04/21 09:27:56;;;;;;;14.32;13.52;;;;;;;;;;5049649;28;20021;-66
2023/04/21 09:30:22;;;;;;;14.60;13.80;;;;;;;;;;5049238;28;22286;-64
2023/04/21 09:32:48;;;;;;;15.43;14.52;;;;;;;;;;5039604;28;20030;-65
2023/04/21 09:35:13;;;;;;;15.05;14.18;;;;;;;;;;5044390;28;20060;-66
2023/04/21 09:37:42;;;;;;;13.98;13.27;;;;;;;;;;5046047;28;20051;-65
2023/04/21 09:40:11;;;;;;;14.73;13.93;;;;;;;;;;5038718;28;20025;-66
2023/04/21 09:42:36;;;;;;;13.80;13.10;;;;;;;;;;5048371;28;20029;-66
2023/04/21 09:45:02;;;;;;;16.15;15.15;;;;;;;;;;5042039;28;20086;-65
2023/04/21 09:47:29;;;;;;;15.25;14.35;;;;;;;;;;5035060;28;20037;-65
2023/04/21 09:49:55;;;;;;;14.82;14.00;;;;;;;;;;5035500;28;20029;-64
2023/04/21 09:52:20;;;;;;;14.63;13.82;;;;;;;;;;5032713;28;20175;-69
2023/04/21 09:54:50;;;;;;;15.57;14.68;;;;;;;;;;5038154;28;20392;-70
2023/04/21 09:57:20;;;;;;;15.07;14.18;;;;;;;;;;5036421;28;20009;-65
2023/04/21 09:59:46;;;;;;;15.13;14.23;;;;;;;;;;5034525;28;20020;-66
2023/04/21 10:02:12;;;;;;;15.85;14.93;;;;;;;;;;5036772;28;20034;-63
2023/04/21 10:04:38;;;;;;;15.32;14.43;;;;;;;;;;5030411;28;20807;-64
2023/04/21 10:07:05;;;;;;;16.08;15.07;;;;;;;;;;5032582;28;20025;-66
2023/04/21 10:09:33;;;;;;;14.98;14.10;;;;;;;;;;5043307;28;20039;-65
2023/04/21 10:12:00;;;;;;;14.63;13.82;;;;;;;;;;5031556;28;20487;-65
2023/04/21 10:14:25;;;;;;;14.95;14.13;;;;;;;;;;5050790;28;20419;-65
2023/04/21 10:17:17;;;;;;;14.00;13.23;;;;;;;;;;5042143;28;20038;-66
2023/04/21 10:19:53;;;;;;;15.15;14.25;;;;;;;;;;5044605;28;20048;-67
2023/04/21 10:22:34;;;;;;;15.00;14.15;;;;;;;;;;5043694;28;20017;-64
2023/04/21 10:25:00;;;;;;;15.02;14.13;;;;;;;;;;5046324;28;20445;-66
2023/04/21 10:27:35;;;;;;;16.15;15.15;;;;;;;;;;5042851;28;20033;-67
2023/04/21 10:30:16;;;;;;;14.88;14.00;;;;;;;;;;5041651;28;20033;-62
2023/04/21 10:32:41;;;;;;;13.55;12.85;;;;;;;;;;5050619;28;20361;-62
2023/04/21 10:35:11;;;;;;;13.10;12.40;;;;;;;;;;5054076;28;20104;-63
2023/04/21 10:37:37;;;;;;;13.85;13.15;;;;;;;;;;5054461;28;20032;-62
2023/04/21 10:40:08;;;;;;;12.82;12.23;;;;;;;;;;5053939;28;20037;-62
2023/04/21 10:42:35;;;;;;;13.90;13.15;;;;;;;;;;5053578;28;20017;-62
2023/04/21 10:45:04;;;;;;;13.52;12.82;;;;;;;;;;5050467;28;20052;-63
2023/04/21 10:47:43;;;;;;;14.07;13.32;;;;;;;;;;5048386;28;20028;-61
2023/04/21 10:50:16;;;;;;;15.10;14.23;;;;;;;;;;5051130;28;20097;-62
2023/04/21 10:52:52;;;;;;;14.07;13.27;;;;;;;;;;5054485;28;20021;-62
2023/04/21 10:55:19;;;;;;;13.65;12.95;;;;;;;;;;5045436;28;20108;-62
2023/04/21 10:57:44;;;;;;;14.02;13.23;;;;;;;;;;5042897;28;20563;-65
2023/04/21 11:00:11;;;;;;;15.60;14.63;;;;;;;;;;5036277;28;20049;-65
2023/04/21 11:02:36;;;;;;;14.93;14.05;;;;;;;;;;5040136;28;20044;-64
2023/04/21 11:05:02;;;;;;;15.07;14.18;;;;;;;;;;5045068;28;20054;-65
2023/04/21 11:07:27;;;;;;;15.40;14.48;;;;;;;;;;5045764;28;20032;-65
2023/04/21 11:09:56;;;;;;;14.60;13.80;;;;;;;;;;5043842;28;20082;-66
2023/04/21 11:12:21;;;;;;;14.40;13.60;;;;;;;;;;5047863;28;20044;-68
2023/04/21 11:14:47;;;;;;;15.00;14.10;;;;;;;;;;5046345;28;20021;-65
2023/04/21 11:17:13;;;;;;;15.10;14.20;;;;;;;;;;5041745;28;20013;-63
2023/04/21 11:19:39;;;;;;;14.93;14.05;;;;;;;;;;5038623;28;20060;-65
2023/04/21 11:22:04;;;;;;;15.00;14.10;;;;;;;;;;5038921;28;20044;-65
2023/04/21 11:24:30;;;;;;;14.60;13.75;;;;;;;;;;5044975;28;20025;-65
2023/04/21 11:26:55;;;;;;;15.55;14.60;;;;;;;;;;5045404;28;20024;-65
2023/04/21 11:29:21;;;;;;;14.50;13.68;;;;;;;;;;5046965;28;20473;-65
2023/04/21 11:31:48;;;;;;;15.65;14.68;;;;;;;;;;5040300;28;20079;-65
2023/04/21 11:34:15;;;;;;;14.68;13.85;;;;;;;;;;5039893;28;20057;-67
2023/04/21 11:36:44;;;;;;;14.85;13.95;;;;;;;;;;5040530;28;20029;-65
2023/04/21 11:39:10;;;;;;;15.00;14.10;;;;;;;;;;5038647;28;20124;-66
2023/04/21 11:41:43;;;;;;;15.25;14.35;;;;;;;;;;5040221;28;20027;-65
2023/04/21 11:44:09;;;;;;;15.07;14.18;;;;;;;;;;5039646;28;20033;-67
2023/04/21 11:46:37;;;;;;;15.73;14.77;;;;;;;;;;5034506;28;20032;-66
2023/04/21 11:49:03;;;;;;;13.88;13.07;;;;;;;;;;5041583;28;20072;-67
2023/04/21 11:51:36;;;;;;;14.82;13.93;;;;;;;;;;5036989;28;20021;-65
2023/04/21 11:54:01;;;;;;;14.98;14.07;;;;;;;;;;5048423;28;20028;-66
2023/04/21 11:56:27;;;;;;;15.15;14.25;;;;;;;;;;5043367;28;20908;-66
2023/04/21 11:58:52;;;;;;;14.48;13.68;;;;;;;;;;5038928;28;20075;-63
2023/04/21 12:01:19;;;;;;;14.52;13.73;;;;;;;;;;5043412;28;20080;-64
2023/04/21 12:03:54;;;;;;;15.13;14.23;;;;;;;;;;5038803;28;20538;-66
2023/04/21 12:06:23;;;;;;;14.27;13.48;;;;;;;;;;5050410;28;20044;-64
2023/04/21 12:08:53;;;;;;;15.43;14.52;;;;;;;;;;5045361;28;20032;-64
2023/04/21 12:11:18;;;;;;;14.48;13.68;;;;;;;;;;5045495;28;20086;-63
2023/04/21 12:13:44;;;;;;;14.10;13.32;;;;;;;;;;5048455;28;20021;-63
2023/04/21 12:16:11;;;;;;;14.52;13.73;;;;;;;;;;5044115;28;20025;-64
2023/04/21 12:18:36;;;;;;;14.10;13.30;;;;;;;;;;5049549;28;20016;-66
2023/04/21 12:21:02;;;;;;;14.23;13.43;;;;;;;;;;5046692;28;20090;-65
2023/04/21 12:23:28;;;;;;;14.05;13.25;;;;;;;;;;5045149;28;20105;-66
2023/04/21 12:25:53;;;;;;;14.18;13.38;;;;;;;;;;5050881;28;20024;-65
2023/04/21 12:28:18;;;;;;;15.38;14.48;;;;;;;;;;5034066;28;20032;-65
2023/04/21 12:30:44;;;;;;;15.35;14.45;;;;;;;;;;5034280;28;20025;-65
2023/04/21 12:33:10;;;;;;;17.75;16.58;;;;;;;;;;5035812;28;20112;-64
2023/04/21 12:35:35;;;;;;;15.68;14.73;;;;;;;;;;5034713;28;20028;-66
2023/04/21 12:38:00;;;;;;;16.27;15.27;;;;;;;;;;5041589;28;20029;-64
2023/04/21 12:40:26;;;;;;;14.50;13.70;;;;;;;;;;5038245;28;20373;-65
2023/04/21 12:42:51;;;;;;;14.35;13.55;;;;;;;;;;5051831;28;20017;-65
2023/04/21 12:45:16;;;;;;;14.20;13.40;;;;;;;;;;5041992;28;20021;-61
2023/04/21 12:47:42;;;;;;;14.68;13.85;;;;;;;;;;5043318;28;20043;-62
2023/04/21 12:50:08;;;;;;;13.95;13.25;;;;;;;;;;5043690;28;20485;-65
2023/04/21 12:52:33;;;;;;;14.60;13.80;;;;;;;;;;5043766;28;20031;-64
2023/04/21 12:54:59;;;;;;;14.50;13.70;;;;;;;;;;5046176;28;20017;-64
2023/04/21 12:57:24;;;;;;;15.18;14.27;;;;;;;;;;5038487;28;20033;-63
2023/04/21 12:59:50;;;;;;;13.90;13.15;;;;;;;;;;5042235;28;20039;-65
2023/04/21 13:02:15;;;;;;;15.70;14.73;;;;;;;;;;5042514;28;21451;-65
2023/04/21 13:04:41;;;;;;;14.68;13.85;;;;;;;;;;5048957;28;20025;-64
2023/04/21 13:07:06;;;;;;;13.80;13.10;;;;;;;;;;5046440;28;20029;-64
2023/04/21 13:09:32;;;;;;;14.60;13.80;;;;;;;;;;5044142;28;20013;-64
2023/04/21 13:11:57;;;;;;;13.50;12.80;;;;;;;;;;5047519;28;20028;-64
2023/04/21 13:14:22;;;;;;;14.63;13.82;;;;;;;;;;5044878;28;20033;-65
2023/04/21 13:16:48;;;;;;;12.95;12.35;;;;;;;;;;5043483;28;20079;-64
2023/04/21 13:19:14;;;;;;;13.93;13.23;;;;;;;;;;5043016;28;20060;-64
2023/04/21 13:21:40;;;;;;;14.30;13.50;;;;;;;;;;5043047;28;20029;-64
2023/04/21 13:24:05;;;;;;;14.75;13.95;;;;;;;;;;5048720;28;20426;-64
2023/04/21 13:26:33;;;;;;;15.48;14.57;;;;;;;;;;5039680;28;20068;-65
2023/04/21 13:28:59;;;;;;;14.32;13.52;;;;;;;;;;5043484;28;20029;-64
2023/04/21 13:31:25;;;;;;;15.20;14.30;;;;;;;;;;5040593;28;20027;-65
2023/04/21 13:33:50;;;;;;;13.77;13.02;;;;;;;;;;5040719;28;20029;-65
2023/04/21 13:36:15;;;;;;;13.63;12.93;;;;;;;;;;5041944;28;20124;-63
2023/04/21 13:38:41;;;;;;;15.25;14.35;;;;;;;;;;5048699;28;20037;-65
2023/04/21 13:41:07;;;;;;;14.43;13.63;;;;;;;;;;5049225;28;20558;-64
2023/04/21 13:43:32;;;;;;;13.35;12.65;;;;;;;;;;5048981;28;20025;-64
2023/04/21 13:45:57;;;;;;;13.20;12.50;;;;;;;;;;5052418;28;20607;-65
2023/04/21 13:48:23;;;;;;;13.98;13.20;;;;;;;;;;5050757;28;20078;-65
2023/04/21 13:50:48;;;;;;;13.77;13.07;;;;;;;;;;5040763;28;20373;-65
2023/04/21 13:53:15;;;;;;;14.40;13.60;;;;;;;;;;5047666;28;20033;-64
2023/04/21 13:55:41;;;;;;;13.63;12.93;;;;;;;;;;5053297;28;20484;-64
2023/04/21 13:58:07;;;;;;;13.73;13.00;;;;;;;;;;5051816;28;20495;-64
2023/04/21 14:00:32;;;;;;;14.73;13.90;;;;;;;;;;5053534;28;20033;-63
2023/04/21 14:02:58;;;;;;;13.68;12.98;;;;;;;;;;5055981;28;20025;-64
2023/04/21 14:05:23;;;;;;;14.45;13.65;;;;;;;;;;5051775;28;20020;-64
2023/04/21 14:07:48;;;;;;;13.88;13.18;;;;;;;;;;5053023;28;20021;-65
2023/04/21 14:10:14;;;;;;;14.82;14.02;;;;;;;;;;5045074;28;20041;-64